Time;durP1;ratioP1;P1;durP2;ratioP2;P2;SDS_P1;SDS_P2;PMS_P1;PMS_P2;Temp;Humidity;BMP_temperature;BMP_pressure;BME280_temperature;BME280_humidity;BME280_pressure;Samples;Min_cycle;Max_cycle;Signal;HPM_P1;HPM_P2
2022/03/29 00:00:30;;;;;;;9.23;6.35;;;14.00;99.90;;;;;;4730238;30;20052;-78
2022/03/29 00:02:57;;;;;;;12.57;6.25;;;14.00;99.90;;;;;;4729956;30;20073;-81
2022/03/29 00:05:26;;;;;;;8.52;5.90;;;14.00;99.90;;;;;;4719767;30;20064;-81
2022/03/29 00:07:53;;;;;;;8.38;5.10;;;14.00;99.90;;;;;;4703284;30;20048;-80
2022/03/29 00:10:21;;;;;;;10.00;7.05;;;14.00;99.90;;;;;;4701793;30;20068;-80
2022/03/29 00:12:53;;;;;;;9.52;6.28;;;14.00;99.90;;;;;;4728397;30;20060;-79
2022/03/29 00:15:39;;;;;;;8.52;5.97;;;14.00;99.90;;;;;;4718740;30;20521;-80
2022/03/29 00:18:07;;;;;;;9.10;6.68;;;14.00;99.90;;;;;;4719255;30;20060;-79
2022/03/29 00:20:35;;;;;;;12.18;6.65;;;14.00;99.90;;;;;;4740443;30;20523;-80
2022/03/29 00:23:03;;;;;;;7.68;5.05;;;13.90;99.90;;;;;;4715151;30;20052;-80
2022/03/29 00:25:31;;;;;;;11.90;7.35;;;13.90;99.90;;;;;;4731476;30;20060;-79
2022/03/29 00:27:58;;;;;;;10.18;6.53;;;13.90;99.90;;;;;;4716006;30;20081;-79
2022/03/29 00:30:26;;;;;;;8.55;6.18;;;13.90;99.90;;;;;;4714727;30;20084;-80
2022/03/29 00:32:55;;;;;;;10.45;6.25;;;13.90;99.90;;;;;;4741687;30;20130;-79
2022/03/29 00:35:24;;;;;;;8.73;6.65;;;13.90;99.90;;;;;;4729856;30;20401;-79
2022/03/29 00:37:53;;;;;;;11.52;6.65;;;13.90;99.90;;;;;;4731648;30;20059;-80
2022/03/29 00:40:21;;;;;;;12.48;7.03;;;13.90;99.90;;;;;;4722165;30;20059;-81
2022/03/29 00:42:49;;;;;;;8.70;6.72;;;13.90;99.90;;;;;;4712653;30;20059;-79
2022/03/29 00:45:17;;;;;;;9.45;6.43;;;13.90;99.90;;;;;;4733726;30;20053;-80
2022/03/29 00:47:44;;;;;;;10.43;6.70;;;13.90;99.90;;;;;;4730925;30;20083;-79
2022/03/29 00:50:12;;;;;;;10.73;6.28;;;13.90;99.90;;;;;;4705515;30;20122;-80
2022/03/29 00:52:40;;;;;;;11.55;6.78;;;13.90;99.90;;;;;;4720264;30;20060;-79
2022/03/29 00:55:12;;;;;;;10.52;6.15;;;13.90;99.90;;;;;;4715056;30;20063;-79
2022/03/29 00:57:41;;;;;;;10.00;6.60;;;13.80;99.90;;;;;;4719737;30;20099;-78
2022/03/29 01:00:09;;;;;;;8.73;5.95;;;13.80;99.90;;;;;;4733835;30;20099;-79
2022/03/29 01:02:36;;;;;;;13.32;7.47;;;13.80;99.90;;;;;;4734558;30;20060;-79
2022/03/29 01:05:04;;;;;;;11.05;7.40;;;13.80;99.90;;;;;;4733908;30;20562;-79
2022/03/29 01:07:32;;;;;;;13.40;7.03;;;13.80;99.90;;;;;;4719715;30;20440;-80
2022/03/29 01:10:01;;;;;;;10.70;6.97;;;13.80;99.90;;;;;;4719201;30;20052;-79
2022/03/29 01:12:33;;;;;;;11.13;6.68;;;13.80;99.90;;;;;;4719637;30;20181;-79
2022/03/29 01:15:08;;;;;;;8.57;7.03;;;13.80;99.90;;;;;;4719418;30;20072;-79
2022/03/29 01:17:41;;;;;;;14.55;7.88;;;13.80;99.90;;;;;;4733896;30;20060;-79
2022/03/29 01:20:11;;;;;;;9.35;6.97;;;13.70;99.90;;;;;;4719198;30;20523;-79
2022/03/29 01:22:44;;;;;;;10.52;6.68;;;13.70;99.90;;;;;;4704844;30;20063;-79
2022/03/29 01:25:23;;;;;;;8.88;6.47;;;13.70;99.90;;;;;;4719521;30;20056;-79
2022/03/29 01:27:52;;;;;;;9.85;6.60;;;13.70;99.90;;;;;;4719607;30;20591;-79
2022/03/29 01:30:21;;;;;;;11.60;7.18;;;13.70;99.90;;;;;;4704938;30;20055;-79
2022/03/29 01:32:50;;;;;;;10.15;7.30;;;13.70;99.90;;;;;;4705004;30;20069;-79
2022/03/29 01:35:22;;;;;;;15.93;7.70;;;13.60;99.90;;;;;;4733813;30;20167;-79
2022/03/29 01:37:51;;;;;;;12.20;7.32;;;13.60;99.90;;;;;;4733085;30;20048;-79
2022/03/29 01:40:21;;;;;;;12.82;6.80;;;13.60;99.90;;;;;;4734755;30;20065;-79
2022/03/29 01:42:49;;;;;;;11.40;6.45;;;13.60;99.90;;;;;;4731897;30;20075;-79
2022/03/29 01:45:18;;;;;;;14.57;7.20;;;13.50;99.90;;;;;;4718926;30;20067;-78
2022/03/29 01:47:45;;;;;;;10.80;7.00;;;13.60;99.90;;;;;;4716932;30;20416;-79
2022/03/29 01:50:14;;;;;;;11.93;8.30;;;13.50;99.90;;;;;;4718787;30;20059;-78
2022/03/29 01:52:45;;;;;;;11.88;7.78;;;13.50;99.90;;;;;;4719007;30;20140;-78
2022/03/29 01:55:15;;;;;;;13.90;8.00;;;13.50;99.90;;;;;;4719218;30;20064;-79
2022/03/29 01:57:43;;;;;;;10.82;7.50;;;13.50;99.90;;;;;;4704648;30;20061;-79
2022/03/29 02:00:30;;;;;;;10.35;7.57;;;13.50;99.90;;;;;;4718743;30;20057;-79
2022/03/29 02:02:59;;;;;;;14.18;8.10;;;13.50;99.90;;;;;;4718756;30;20052;-79
2022/03/29 02:05:27;;;;;;;14.65;8.48;;;13.50;99.90;;;;;;4718540;30;20060;-79
2022/03/29 02:07:56;;;;;;;11.95;7.95;;;13.50;99.90;;;;;;4718907;30;20102;-79
2022/03/29 02:10:24;;;;;;;15.25;9.27;;;13.50;99.90;;;;;;4718694;30;20051;-79
2022/03/29 02:12:52;;;;;;;12.27;9.45;;;13.40;99.90;;;;;;4733033;30;20080;-79
2022/03/29 02:15:20;;;;;;;13.23;9.18;;;13.50;99.90;;;;;;4703892;30;20069;-79
2022/03/29 02:17:50;;;;;;;11.18;8.93;;;13.40;99.90;;;;;;4704357;30;20106;-79
2022/03/29 02:20:20;;;;;;;13.80;9.13;;;13.40;99.90;;;;;;4718424;30;20386;-79
2022/03/29 02:22:48;;;;;;;13.90;7.95;;;13.40;99.90;;;;;;4718648;30;20242;-79
2022/03/29 02:25:16;;;;;;;15.23;7.80;;;13.40;99.90;;;;;;4718588;30;20072;-78
2022/03/29 02:27:45;;;;;;;14.05;7.70;;;13.40;99.90;;;;;;4718662;30;20074;-78
2022/03/29 02:30:15;;;;;;;12.20;7.57;;;13.40;99.90;;;;;;4718169;30;20462;-79
2022/03/29 02:32:43;;;;;;;11.20;7.50;;;13.40;99.90;;;;;;4718385;30;20058;-79
2022/03/29 02:35:11;;;;;;;10.32;7.88;;;13.50;99.90;;;;;;4732824;30;20055;-79
2022/03/29 02:37:39;;;;;;;11.50;8.35;;;13.40;99.90;;;;;;4730009;30;20060;-79
2022/03/29 02:40:09;;;;;;;11.57;7.05;;;13.40;99.90;;;;;;4717551;30;20061;-79
2022/03/29 02:42:44;;;;;;;13.18;8.18;;;13.40;99.90;;;;;;4714359;30;20061;-79
2022/03/29 02:45:14;;;;;;;11.55;7.28;;;13.40;99.90;;;;;;4700829;30;20068;-79
2022/03/29 02:47:44;;;;;;;11.90;7.15;;;13.40;99.90;;;;;;4700476;30;20056;-79
2022/03/29 02:50:12;;;;;;;13.57;8.20;;;13.40;99.90;;;;;;4714807;30;20049;-79
2022/03/29 02:52:47;;;;;;;12.68;7.72;;;13.30;99.90;;;;;;4714985;30;20063;-79
2022/03/29 02:55:16;;;;;;;10.32;6.22;;;13.30;99.90;;;;;;4700773;30;20143;-79
2022/03/29 02:57:44;;;;;;;12.07;6.55;;;13.40;99.90;;;;;;4700679;30;20064;-79
2022/03/29 03:00:15;;;;;;;13.15;7.32;;;13.30;99.90;;;;;;4700124;30;20159;-79
2022/03/29 03:02:49;;;;;;;10.40;7.32;;;13.30;99.90;;;;;;4719099;30;20176;-79
2022/03/29 03:05:19;;;;;;;9.20;6.38;;;13.40;99.90;;;;;;4700655;30;20142;-79
2022/03/29 03:07:48;;;;;;;14.38;8.23;;;13.30;99.90;;;;;;4714924;30;20057;-79
2022/03/29 03:10:15;;;;;;;9.40;6.03;;;13.30;99.90;;;;;;4714773;30;20128;-79
2022/03/29 03:12:48;;;;;;;8.85;6.28;;;13.30;99.90;;;;;;4714525;30;20472;-79
2022/03/29 03:15:18;;;;;;;8.73;6.35;;;13.30;99.90;;;;;;4714541;30;20147;-79
2022/03/29 03:17:48;;;;;;;10.95;5.68;;;13.30;99.90;;;;;;4729198;30;20076;-79
2022/03/29 03:20:17;;;;;;;8.68;6.85;;;13.30;99.90;;;;;;4699805;30;20501;-79
2022/03/29 03:22:45;;;;;;;9.90;6.30;;;13.20;99.90;;;;;;4700316;30;20053;-79
2022/03/29 03:25:13;;;;;;;13.50;6.55;;;13.30;99.90;;;;;;4729104;30;20057;-78
2022/03/29 03:27:41;;;;;;;9.50;7.03;;;13.20;99.90;;;;;;4711154;30;20061;-78
2022/03/29 03:30:12;;;;;;;10.65;7.97;;;13.20;99.90;;;;;;4714157;30;20091;-79
2022/03/29 03:32:40;;;;;;;15.50;7.80;;;13.20;99.90;;;;;;4707400;30;20093;-79
2022/03/29 03:35:10;;;;;;;14.13;7.30;;;13.20;99.90;;;;;;4714402;30;20071;-79
2022/03/29 03:37:38;;;;;;;8.23;6.45;;;13.20;99.90;;;;;;4715201;30;20510;-79
2022/03/29 03:40:09;;;;;;;13.27;7.38;;;13.20;99.90;;;;;;4699543;30;20807;-79
2022/03/29 03:42:37;;;;;;;13.55;7.55;;;13.10;99.90;;;;;;4714098;30;20091;-79
2022/03/29 03:45:06;;;;;;;13.13;8.20;;;13.10;99.90;;;;;;4700047;30;20057;-79
2022/03/29 03:47:35;;;;;;;11.15;7.05;;;13.10;99.90;;;;;;4685534;30;20053;-79
2022/03/29 03:50:05;;;;;;;11.30;8.45;;;13.10;99.90;;;;;;4685151;30;20062;-79
2022/03/29 03:52:33;;;;;;;9.73;7.38;;;13.10;99.90;;;;;;4700029;30;20143;-79
2022/03/29 03:55:01;;;;;;;10.02;6.63;;;13.10;99.90;;;;;;4699767;30;20057;-79
2022/03/29 03:57:29;;;;;;;10.40;6.50;;;13.10;99.90;;;;;;4699823;30;20106;-79
2022/03/29 03:59:56;;;;;;;11.10;7.10;;;13.10;99.90;;;;;;4714909;30;20053;-79
2022/03/29 04:02:24;;;;;;;9.68;6.53;;;13.10;99.90;;;;;;4699504;30;20067;-78
2022/03/29 04:04:52;;;;;;;10.70;6.00;;;13.10;99.90;;;;;;4714096;30;20044;-79
2022/03/29 04:07:20;;;;;;;7.82;5.80;;;13.10;99.90;;;;;;4714021;30;20049;-79
2022/03/29 04:09:48;;;;;;;8.77;5.80;;;13.10;99.90;;;;;;4685307;30;20394;-78
2022/03/29 04:12:15;;;;;;;15.90;6.07;;;13.10;99.90;;;;;;4699199;30;20076;-79
2022/03/29 04:14:43;;;;;;;10.77;6.60;;;13.10;99.90;;;;;;4699162;30;20071;-79
2022/03/29 04:17:11;;;;;;;13.13;6.03;;;13.10;99.90;;;;;;4685371;30;20402;-79
2022/03/29 04:19:39;;;;;;;11.52;7.47;;;13.00;99.90;;;;;;4699442;30;20084;-79
2022/03/29 04:22:07;;;;;;;12.02;6.22;;;13.00;99.90;;;;;;4717584;30;20056;-79
2022/03/29 04:24:35;;;;;;;9.77;5.95;;;13.00;99.90;;;;;;4701665;30;20088;-79
2022/03/29 04:27:03;;;;;;;12.27;6.82;;;13.00;99.90;;;;;;4714944;30;20143;-79
2022/03/29 04:29:31;;;;;;;10.63;7.50;;;13.00;99.90;;;;;;4701468;30;20072;-79
2022/03/29 04:31:58;;;;;;;9.75;7.00;;;12.90;99.90;;;;;;4729857;30;20057;-78
2022/03/29 04:34:26;;;;;;;10.45;6.30;;;12.90;99.90;;;;;;4741004;30;20565;-78
2022/03/29 04:36:53;;;;;;;9.30;5.85;;;12.90;99.90;;;;;;4715692;30;20072;-78
2022/03/29 04:39:21;;;;;;;11.30;7.18;;;12.90;99.90;;;;;;4730172;30;20057;-79
2022/03/29 04:41:49;;;;;;;11.52;7.03;;;12.90;99.90;;;;;;4715902;30;20113;-78
2022/03/29 04:44:37;;;;;;;8.00;5.80;;;13.00;99.90;;;;;;4735239;30;20044;-79
2022/03/29 04:47:05;;;;;;;9.85;6.82;;;13.00;99.90;;;;;;4716053;30;20500;-78
2022/03/29 04:49:32;;;;;;;9.23;6.00;;;13.00;99.90;;;;;;4716333;30;20135;-79
2022/03/29 04:52:01;;;;;;;10.70;5.68;;;13.00;99.90;;;;;;4714649;30;20152;-78
2022/03/29 04:54:29;;;;;;;9.13;6.55;;;13.00;99.90;;;;;;4730324;30;20589;-79
2022/03/29 04:56:56;;;;;;;11.77;6.95;;;13.00;99.90;;;;;;4737990;30;20049;-79
2022/03/29 04:59:24;;;;;;;9.93;7.18;;;13.00;99.90;;;;;;4723954;30;20482;-78
2022/03/29 05:01:52;;;;;;;10.88;6.53;;;13.10;99.90;;;;;;4748688;30;20601;-78
2022/03/29 05:04:19;;;;;;;13.00;7.88;;;13.00;99.90;;;;;;4748408;30;20063;-79
2022/03/29 05:06:47;;;;;;;9.27;6.82;;;13.10;99.90;;;;;;4749633;30;20079;-78
2022/03/29 05:09:15;;;;;;;16.90;8.18;;;13.10;99.90;;;;;;4733991;30;20052;-78
2022/03/29 05:11:42;;;;;;;10.05;6.35;;;13.10;99.90;;;;;;4720370;30;20056;-78
2022/03/29 05:14:10;;;;;;;10.15;6.22;;;13.10;99.90;;;;;;4752521;30;20063;-79
2022/03/29 05:16:37;;;;;;;8.77;6.57;;;13.20;99.90;;;;;;4737054;30;20079;-79
2022/03/29 05:19:05;;;;;;;10.27;6.53;;;13.30;99.90;;;;;;4747058;30;20049;-79
2022/03/29 05:21:32;;;;;;;9.57;6.28;;;13.40;99.90;;;;;;4702514;30;20107;-79
2022/03/29 05:24:00;;;;;;;9.82;6.18;;;13.40;99.90;;;;;;4716284;30;20045;-80
2022/03/29 05:26:28;;;;;;;10.35;6.38;;;13.50;99.90;;;;;;4728858;30;20799;-79
2022/03/29 05:28:56;;;;;;;11.38;7.35;;;13.60;99.90;;;;;;4730948;30;20049;-80
2022/03/29 05:31:24;;;;;;;9.80;5.95;;;13.70;99.90;;;;;;4716553;30;20053;-80
2022/03/29 05:33:51;;;;;;;11.68;6.28;;;13.80;99.90;;;;;;4745230;30;20052;-80
2022/03/29 05:36:19;;;;;;;8.00;5.68;;;13.80;99.90;;;;;;4717297;30;20490;-80
2022/03/29 05:38:51;;;;;;;10.80;6.63;;;13.90;99.90;;;;;;4730723;30;20061;-79
2022/03/29 05:41:20;;;;;;;8.60;5.72;;;14.10;99.90;;;;;;4730781;30;20076;-79
2022/03/29 05:43:48;;;;;;;7.15;6.00;;;14.10;99.90;;;;;;4716262;30;20049;-80
2022/03/29 05:49:04;;;;;;;11.02;7.22;;;14.40;99.90;;;;;;4701466;30;20057;-79
2022/03/29 05:51:31;;;;;;;9.55;6.18;;;14.50;99.90;;;;;;4716995;30;20053;-79
2022/03/29 05:54:01;;;;;;;6.70;5.20;;;14.60;99.90;;;;;;4715829;30;20053;-79
2022/03/29 05:56:29;;;;;;;11.85;6.10;;;14.70;99.90;;;;;;4715829;30;20052;-80
2022/03/29 05:58:56;;;;;;;10.23;6.35;;;14.80;99.90;;;;;;4715966;30;20464;-80
2022/03/29 06:01:25;;;;;;;8.00;5.97;;;14.90;99.90;;;;;;4701268;30;20535;-79
2022/03/29 06:03:52;;;;;;;11.32;6.18;;;15.00;99.90;;;;;;4715352;30;20550;-79
2022/03/29 06:06:20;;;;;;;10.57;5.55;;;15.20;99.90;;;;;;4701008;30;20057;-80
2022/03/29 06:08:48;;;;;;;11.30;6.85;;;15.30;99.90;;;;;;4715445;30;20536;-80
2022/03/29 06:11:16;;;;;;;9.98;5.82;;;15.40;99.90;;;;;;4715740;30;20049;-79
2022/03/29 06:13:44;;;;;;;10.00;5.78;;;15.50;99.90;;;;;;4700838;30;20685;-78
2022/03/29 06:16:11;;;;;;;10.23;6.60;;;15.70;99.90;;;;;;4715225;30;20425;-79
2022/03/29 06:18:39;;;;;;;9.48;6.22;;;15.80;99.90;;;;;;4715523;30;20390;-79
2022/03/29 06:21:06;;;;;;;9.88;6.35;;;15.90;99.90;;;;;;4701229;30;20057;-78
2022/03/29 06:23:34;;;;;;;12.48;6.13;;;16.00;99.90;;;;;;4697542;30;20119;-79
2022/03/29 06:26:02;;;;;;;9.07;5.70;;;16.10;99.90;;;;;;4716534;30;20140;-79
2022/03/29 06:28:30;;;;;;;8.55;6.05;;;16.30;99.90;;;;;;4701004;30;20475;-79
2022/03/29 06:30:57;;;;;;;12.45;6.15;;;16.40;99.90;;;;;;4700720;30;20509;-78
2022/03/29 06:33:26;;;;;;;12.15;6.13;;;16.50;99.90;;;;;;4700939;30;20128;-79
2022/03/29 06:35:53;;;;;;;8.00;5.75;;;16.60;99.90;;;;;;4715351;30;20164;-79
2022/03/29 06:38:22;;;;;;;13.00;6.55;;;16.70;99.90;;;;;;4700734;30;20060;-79
2022/03/29 06:40:50;;;;;;;6.15;4.30;;;16.80;99.90;;;;;;4715284;30;20433;-79
2022/03/29 06:43:18;;;;;;;9.75;5.40;;;16.90;99.90;;;;;;4700781;30;20603;-79
2022/03/29 06:45:46;;;;;;;12.85;6.32;;;17.10;99.90;;;;;;4700715;30;20065;-79
2022/03/29 06:48:13;;;;;;;16.10;6.18;;;17.20;99.90;;;;;;4714797;30;20049;-78
2022/03/29 06:50:41;;;;;;;12.52;6.57;;;17.30;99.90;;;;;;4700656;30;20119;-78
2022/03/29 06:53:09;;;;;;;10.07;6.10;;;17.40;99.90;;;;;;4700636;30;20063;-78
2022/03/29 06:55:36;;;;;;;9.80;5.68;;;17.50;99.90;;;;;;4715114;30;20057;-79
2022/03/29 06:58:04;;;;;;;8.98;5.57;;;17.60;99.90;;;;;;4700665;30;20096;-79
2022/03/29 07:00:32;;;;;;;8.77;5.45;;;17.80;99.90;;;;;;4714911;30;20067;-79
2022/03/29 07:03:00;;;;;;;8.50;5.07;;;17.90;99.90;;;;;;4716118;30;20052;-79
2022/03/29 07:05:27;;;;;;;8.82;5.13;;;18.00;99.90;;;;;;4714998;30;20525;-79
2022/03/29 07:07:55;;;;;;;10.40;4.82;;;18.10;99.90;;;;;;4714951;30;20386;-79
2022/03/29 07:13:09;;;;;;;11.80;5.07;;;18.40;99.90;;;;;;4715690;30;20458;-79
2022/03/29 07:15:36;;;;;;;9.82;4.78;;;18.40;99.60;;;;;;4714415;30;20065;-79
2022/03/29 07:18:05;;;;;;;9.00;4.00;;;18.40;99.40;;;;;;4714379;30;20394;-79
2022/03/29 07:20:33;;;;;;;6.55;3.97;;;18.50;98.90;;;;;;4714687;30;20198;-79
2022/03/29 07:23:01;;;;;;;6.60;4.07;;;18.60;97.90;;;;;;4715656;30;20045;-79
2022/03/29 07:25:32;;;;;;;7.10;4.22;;;18.70;97.50;;;;;;4714433;30;20119;-79
2022/03/29 07:28:00;;;;;;;9.27;3.67;;;18.70;96.90;;;;;;4699888;30;20053;-79
2022/03/29 07:30:29;;;;;;;10.10;4.40;;;18.70;96.60;;;;;;4700220;30;20053;-79
2022/03/29 07:32:58;;;;;;;7.28;3.88;;;18.80;96.20;;;;;;4700010;30;20467;-79
2022/03/29 07:35:28;;;;;;;8.60;3.92;;;18.60;96.20;;;;;;4715171;30;20052;-79
2022/03/29 07:37:56;;;;;;;6.20;3.58;;;18.70;96.10;;;;;;4714389;30;20723;-79
2022/03/29 07:40:26;;;;;;;6.55;3.25;;;18.80;96.10;;;;;;4699687;30;20466;-79
2022/03/29 07:42:54;;;;;;;8.70;3.70;;;18.90;95.80;;;;;;4700040;30;20383;-79
2022/03/29 07:45:22;;;;;;;6.63;2.92;;;19.10;95.20;;;;;;4714100;30;20080;-78
2022/03/29 07:47:52;;;;;;;6.13;3.65;;;19.10;94.90;;;;;;4714209;30;20057;-79
2022/03/29 07:50:40;;;;;;;6.82;3.40;;;19.20;94.80;;;;;;4713922;30;20055;-78
2022/03/29 07:53:07;;;;;;;9.43;3.55;;;19.20;94.50;;;;;;4714214;30;20041;-79
2022/03/29 07:55:39;;;;;;;9.63;3.75;;;19.20;94.30;;;;;;4714149;30;20048;-79
2022/03/29 07:58:09;;;;;;;7.03;4.10;;;19.30;94.30;;;;;;4702727;30;20067;-78
2022/03/29 08:00:37;;;;;;;8.77;3.63;;;19.40;94.30;;;;;;4731697;30;20070;-79
2022/03/29 08:03:10;;;;;;;8.70;4.05;;;19.60;94.20;;;;;;4717062;30;20497;-79
2022/03/29 08:05:39;;;;;;;8.45;3.35;;;19.70;93.90;;;;;;4717157;30;20133;-79
2022/03/29 08:08:07;;;;;;;6.30;3.88;;;19.80;93.90;;;;;;4731309;30;20130;-79
2022/03/29 08:10:35;;;;;;;6.18;3.72;;;19.90;93.50;;;;;;4717201;30;20057;-79
2022/03/29 08:13:05;;;;;;;10.20;4.22;;;19.90;93.20;;;;;;4716969;30;20810;-79
2022/03/29 08:15:32;;;;;;;8.73;3.80;;;19.90;93.00;;;;;;4731275;30;20119;-79
2022/03/29 08:18:02;;;;;;;9.82;4.00;;;19.90;92.90;;;;;;4731120;30;20090;-78
2022/03/29 08:20:30;;;;;;;8.55;3.40;;;19.90;92.90;;;;;;4702470;30;20052;-78
2022/03/29 08:23:01;;;;;;;10.38;4.03;;;19.90;92.80;;;;;;4717054;30;20076;-78
2022/03/29 08:25:31;;;;;;;10.43;5.00;;;20.00;92.80;;;;;;4702727;30;20115;-78
2022/03/29 08:28:00;;;;;;;5.32;3.88;;;19.90;92.60;;;;;;4731380;30;20476;-78
2022/03/29 08:30:29;;;;;;;8.35;4.78;;;20.00;92.80;;;;;;4716841;30;20131;-79
2022/03/29 08:32:58;;;;;;;6.38;3.72;;;20.10;92.90;;;;;;4716979;30;20487;-78
2022/03/29 08:35:28;;;;;;;5.53;3.75;;;20.20;92.40;;;;;;4731524;30;20064;-78
2022/03/29 08:37:55;;;;;;;5.53;3.13;;;20.30;92.30;;;;;;4731651;30;20102;-78
2022/03/29 08:40:45;;;;;;;6.47;3.22;;;20.30;92.10;;;;;;4716898;30;20052;-78
2022/03/29 08:43:17;;;;;;;7.93;4.20;;;20.30;92.40;;;;;;4716628;30;20146;-79
2022/03/29 08:45:49;;;;;;;9.05;4.25;;;20.40;92.50;;;;;;4722491;30;20073;-78
2022/03/29 08:48:17;;;;;;;5.00;3.10;;;20.40;92.40;;;;;;4717119;30;20055;-78
2022/03/29 08:50:46;;;;;;;8.75;3.70;;;20.50;91.90;;;;;;4718111;30;20049;-78
2022/03/29 08:53:17;;;;;;;7.90;3.22;;;20.60;91.80;;;;;;4717165;30;20068;-79
2022/03/29 08:55:45;;;;;;;9.65;3.85;;;20.50;92.10;;;;;;4688446;30;20063;-79
2022/03/29 08:58:16;;;;;;;9.00;4.07;;;20.70;92.20;;;;;;4731104;30;20124;-79
2022/03/29 09:00:46;;;;;;;7.82;4.28;;;20.60;91.90;;;;;;4688373;30;20425;-79
2022/03/29 09:03:16;;;;;;;6.00;3.38;;;20.70;92.00;;;;;;4716580;30;20109;-78
2022/03/29 09:05:43;;;;;;;9.32;4.05;;;20.70;91.70;;;;;;4702284;30;20057;-78
2022/03/29 09:08:13;;;;;;;8.73;4.05;;;20.80;91.50;;;;;;4716500;30;20497;-79
2022/03/29 09:10:49;;;;;;;10.52;3.75;;;20.70;91.30;;;;;;4716683;30;20057;-78
2022/03/29 09:13:31;;;;;;;7.90;3.22;;;20.60;91.30;;;;;;4717039;30;20060;-78
2022/03/29 09:16:01;;;;;;;6.93;3.50;;;20.70;91.50;;;;;;4716404;30;20052;-78
2022/03/29 09:18:30;;;;;;;8.48;4.53;;;20.70;91.10;;;;;;4710269;30;20067;-79
2022/03/29 09:21:16;;;;;;;8.90;4.13;;;20.80;91.00;;;;;;4721144;30;20053;-78
2022/03/29 09:24:03;;;;;;;10.77;3.72;;;20.70;91.40;;;;;;4731579;30;20055;-78
2022/03/29 09:26:31;;;;;;;9.50;3.10;;;20.80;91.10;;;;;;4733474;30;20053;-78
2022/03/29 09:28:59;;;;;;;12.25;4.13;;;20.80;90.70;;;;;;4733842;30;20509;-78
2022/03/29 09:31:27;;;;;;;7.50;3.15;;;20.60;91.00;;;;;;4734845;30;20055;-78
2022/03/29 09:34:19;;;;;;;9.48;4.38;;;20.60;91.10;;;;;;4733961;30;20056;-78
2022/03/29 09:36:52;;;;;;;10.93;3.65;;;20.60;91.00;;;;;;4726517;30;20067;-78
2022/03/29 09:39:42;;;;;;;6.97;3.90;;;20.50;91.00;;;;;;4719463;30;20053;-79
2022/03/29 09:42:18;;;;;;;8.35;3.88;;;20.30;91.30;;;;;;4733536;30;20056;-78
2022/03/29 09:44:50;;;;;;;7.10;3.60;;;20.30;91.30;;;;;;4732953;30;20073;-78
2022/03/29 09:47:20;;;;;;;6.97;3.75;;;20.40;91.10;;;;;;4719224;30;20052;-78
2022/03/29 09:49:54;;;;;;;8.73;3.67;;;20.40;91.40;;;;;;4734104;30;20056;-78
2022/03/29 09:52:24;;;;;;;6.20;3.47;;;20.60;91.50;;;;;;4704867;30;20088;-77
2022/03/29 09:55:17;;;;;;;8.10;3.88;;;20.70;91.30;;;;;;4734442;30;20061;-77
2022/03/29 09:57:53;;;;;;;4.38;3.35;;;20.80;91.00;;;;;;4719402;30;20044;-79
2022/03/29 10:00:30;;;;;;;;;;;20.80;90.50;;;;;;4720133;30;20120;-78
2022/03/29 10:02:59;;;;;;;8.35;3.70;;;20.80;90.30;;;;;;4733950;30;19930;-78
2022/03/29 10:05:28;;;;;;;11.10;4.78;;;20.70;89.90;;;;;;4705552;30;20052;-78
2022/03/29 10:09:25;;;;;;;8.70;3.42;;;20.60;89.50;;;;;;4719677;30;20151;-77
2022/03/29 10:10:47;;;;;;;6.13;3.40;;;20.30;90.30;;;;;;4733898;30;20061;-78
2022/03/29 10:13:16;;;;;;;8.50;3.67;;;20.50;90.40;;;;;;4719804;30;20082;-78
2022/03/29 10:15:45;;;;;;;8.20;3.47;;;20.40;90.00;;;;;;4704822;30;20498;-78
2022/03/29 10:18:14;;;;;;;8.73;3.45;;;20.00;88.00;;;;;;4733343;30;20583;-80
2022/03/29 10:20:43;;;;;;;6.35;3.60;;;20.10;88.80;;;;;;4705332;30;20823;-78
2022/03/29 10:23:14;;;;;;;8.90;3.17;;;20.00;88.10;;;;;;4719006;30;20057;-79
2022/03/29 10:25:43;;;;;;;13.07;4.45;;;20.10;86.90;;;;;;4719686;30;20053;-78
2022/03/29 10:28:11;;;;;;;6.13;2.92;;;20.10;87.40;;;;;;4718702;30;20151;-78
2022/03/29 10:30:40;;;;;;;9.00;3.53;;;20.30;87.60;;;;;;4733381;30;20574;-76
2022/03/29 10:33:24;;;;;;;9.75;3.55;;;20.50;87.00;;;;;;4719324;30;20535;-76
2022/03/29 10:36:02;;;;;;;10.00;5.38;;;20.50;86.60;;;;;;4734298;30;20048;-79
2022/03/29 10:38:48;;;;;;;16.02;3.58;;;20.30;87.30;;;;;;4705095;30;20068;-78
2022/03/29 10:41:28;;;;;;;9.32;4.18;;;20.40;87.40;;;;;;4719356;30;20767;-78
2022/03/29 10:44:08;;;;;;;6.53;3.38;;;20.60;88.00;;;;;;4718919;30;20059;-78
2022/03/29 10:46:41;;;;;;;9.93;4.47;;;20.70;88.00;;;;;;4718700;30;20072;-77
2022/03/29 10:49:15;;;;;;;10.02;4.72;;;20.90;88.20;;;;;;4734168;30;20079;-77
2022/03/29 10:51:43;;;;;;;8.07;3.63;;;21.00;87.30;;;;;;4733305;30;20138;-77
2022/03/29 10:54:23;;;;;;;7.00;3.42;;;20.90;84.10;;;;;;4732789;30;20052;-77
2022/03/29 10:56:57;;;;;;;8.07;3.30;;;20.70;84.50;;;;;;4704420;30;20078;-77
2022/03/29 10:59:26;;;;;;;8.98;4.05;;;20.70;84.40;;;;;;4718657;30;20148;-77
2022/03/29 11:02:14;;;;;;;6.88;3.20;;;20.70;85.20;;;;;;4718937;30;20107;-78
2022/03/29 11:05:13;;;;;;;8.23;4.28;;;20.60;85.70;;;;;;4732960;30;20451;-77
2022/03/29 11:07:53;;;;;;;7.43;3.45;;;20.70;86.00;;;;;;4733134;30;20151;-79
2022/03/29 11:10:37;;;;;;;8.25;3.67;;;20.60;84.10;;;;;;4717913;30;20057;-78
2022/03/29 11:13:26;;;;;;;5.82;3.03;;;20.60;83.40;;;;;;4704007;30;20160;-77
2022/03/29 11:15:55;;;;;;;10.48;4.47;;;20.50;84.10;;;;;;4718494;30;20079;-78
2022/03/29 11:18:32;;;;;;;10.45;4.13;;;20.40;84.20;;;;;;4732573;30;20063;-79
2022/03/29 11:21:04;;;;;;;7.13;3.42;;;20.30;84.00;;;;;;4704251;30;20497;-78
2022/03/29 11:23:34;;;;;;;6.43;3.47;;;20.40;84.30;;;;;;4732785;30;20044;-78
2022/03/29 11:26:08;;;;;;;9.07;3.30;;;20.30;83.60;;;;;;4718307;30;20492;-78
2022/03/29 11:28:37;;;;;;;8.95;4.53;;;20.20;83.30;;;;;;4717660;30;20492;-77
2022/03/29 11:31:04;;;;;;;11.82;4.30;;;20.10;85.00;;;;;;4703827;30;20060;-78
2022/03/29 11:33:34;;;;;;;11.13;4.70;;;20.10;85.20;;;;;;4732697;30;20131;-78
2022/03/29 11:36:06;;;;;;;7.32;3.80;;;19.80;84.50;;;;;;4717936;30;20060;-77
2022/03/29 11:38:36;;;;;;;9.65;3.05;;;19.90;84.10;;;;;;4732489;30;20067;-77
2022/03/29 11:41:04;;;;;;;11.77;4.38;;;20.10;84.30;;;;;;4732107;30;20080;-78
2022/03/29 11:43:33;;;;;;;6.20;3.88;;;20.30;84.20;;;;;;4731856;30;20060;-77
2022/03/29 11:46:00;;;;;;;11.43;3.90;;;20.50;83.00;;;;;;4711957;30;20064;-78
2022/03/29 11:48:28;;;;;;;5.70;4.00;;;20.50;82.30;;;;;;4691640;30;20522;-79
2022/03/29 11:51:00;;;;;;;6.75;3.90;;;20.60;82.40;;;;;;4703841;30;20076;-78
2022/03/29 11:53:36;;;;;;;11.20;3.65;;;20.60;82.70;;;;;;4706646;30;20071;-80
2022/03/29 11:56:13;;;;;;;13.57;4.30;;;20.60;82.40;;;;;;4719638;30;20110;-79
2022/03/29 11:58:51;;;;;;;11.07;4.72;;;20.50;81.80;;;;;;4700244;30;20049;-77
2022/03/29 12:01:24;;;;;;;11.63;4.07;;;20.60;81.90;;;;;;4707955;30;20063;-78
2022/03/29 12:03:57;;;;;;;8.50;3.63;;;20.50;80.50;;;;;;4731965;30;20067;-78
2022/03/29 12:06:28;;;;;;;8.80;4.38;;;20.40;80.60;;;;;;4712412;30;20143;-77
2022/03/29 12:08:56;;;;;;;7.95;3.58;;;20.40;80.50;;;;;;4717721;30;20057;-77
2022/03/29 12:11:31;;;;;;;9.25;3.45;;;20.40;80.90;;;;;;4721723;30;20552;-77
2022/03/29 12:14:13;;;;;;;7.93;3.80;;;20.30;82.80;;;;;;4687424;30;20061;-77
2022/03/29 12:16:46;;;;;;;13.57;3.30;;;20.40;83.20;;;;;;4720648;30;20053;-77
2022/03/29 12:19:20;;;;;;;11.13;3.58;;;20.40;82.60;;;;;;4715158;30;20131;-78
2022/03/29 12:22:02;;;;;;;11.30;3.10;;;20.50;82.70;;;;;;4719616;30;20143;-78
2022/03/29 12:24:35;;;;;;;9.57;3.53;;;20.50;80.80;;;;;;4718328;30;20049;-77
2022/03/29 12:27:12;;;;;;;14.45;4.53;;;20.60;80.70;;;;;;4732385;30;20053;-77
2022/03/29 12:29:46;;;;;;;7.72;3.63;;;20.50;81.40;;;;;;4735382;30;20076;-76
2022/03/29 12:32:16;;;;;;;16.63;4.05;;;20.50;82.00;;;;;;4728339;30;20514;-76
2022/03/29 12:34:53;;;;;;;8.05;3.67;;;20.40;81.60;;;;;;4735164;30;20048;-77
2022/03/29 12:37:24;;;;;;;7.13;3.85;;;20.30;81.20;;;;;;4707243;30;20072;-77
2022/03/29 12:39:55;;;;;;;13.18;4.32;;;20.20;81.70;;;;;;4703828;30;20082;-77
2022/03/29 12:42:23;;;;;;;8.65;4.82;;;20.30;82.40;;;;;;4727751;30;20531;-77
2022/03/29 12:44:56;;;;;;;8.20;3.90;;;20.30;81.60;;;;;;4720130;30;20053;-78
2022/03/29 12:47:26;;;;;;;9.32;4.13;;;20.30;82.20;;;;;;4712995;30;20453;-78
2022/03/29 12:49:55;;;;;;;8.40;4.28;;;20.30;81.70;;;;;;4717808;30;20045;-77
2022/03/29 12:52:22;;;;;;;8.98;3.92;;;20.20;81.20;;;;;;4735764;30;20134;-77
2022/03/29 12:54:59;;;;;;;11.40;4.30;;;20.20;81.20;;;;;;4746710;30;20147;-77
2022/03/29 12:57:35;;;;;;;9.10;4.80;;;20.10;81.10;;;;;;4729531;30;20488;-77
2022/03/29 13:00:14;;;;;;;10.05;4.28;;;20.00;81.20;;;;;;4704539;30;20503;-78
2022/03/29 13:02:46;;;;;;;8.23;3.45;;;19.90;81.60;;;;;;4717354;30;20717;-78
2022/03/29 13:05:22;;;;;;;15.13;4.80;;;19.90;81.60;;;;;;4717820;30;20057;-77